Time;durP1;ratioP1;P1;durP2;ratioP2;P2;SDS_P1;SDS_P2;PMS_P1;PMS_P2;Temp;Humidity;BMP_temperature;BMP_pressure;BME280_temperature;BME280_humidity;BME280_pressure;Samples;Min_cycle;Max_cycle;Signal;HPM_P1;HPM_P2
2022/09/22 00:01:09;;;;;;;15.43;7.68;;;8.50;99.90;;;;;;5061588;28;20525;-63
2022/09/22 00:03:40;;;;;;;12.27;7.78;;;8.70;99.90;;;;;;5058219;28;20135;-64
2022/09/22 00:06:07;;;;;;;14.45;7.38;;;8.40;99.90;;;;;;5062593;28;20116;-64
2022/09/22 00:08:36;;;;;;;13.25;7.47;;;8.40;99.90;;;;;;5059012;28;20047;-63
2022/09/22 00:11:12;;;;;;;10.48;7.18;;;8.60;99.90;;;;;;5062418;28;20074;-63
2022/09/22 00:13:40;;;;;;;13.35;7.63;;;8.60;99.90;;;;;;5059930;28;20297;-64
2022/09/22 00:16:10;;;;;;;12.98;7.93;;;8.50;99.90;;;;;;5063687;28;20541;-64
2022/09/22 00:18:36;;;;;;;11.48;7.03;;;8.50;99.90;;;;;;5042954;28;20050;-65
2022/09/22 00:21:08;;;;;;;9.68;8.05;;;8.50;99.90;;;;;;5063979;28;20089;-64
2022/09/22 00:23:34;;;;;;;9.65;7.15;;;8.40;99.90;;;;;;5057799;28;20625;-64
2022/09/22 00:26:12;;;;;;;10.05;7.30;;;8.30;99.90;;;;;;5060498;28;20054;-65
2022/09/22 00:28:40;;;;;;;12.23;7.78;;;8.10;99.90;;;;;;5061350;28;20575;-65
2022/09/22 00:31:18;;;;;;;12.10;7.68;;;8.20;99.90;;;;;;5055820;28;20113;-64
2022/09/22 00:33:45;;;;;;;10.80;7.72;;;8.20;99.90;;;;;;5078992;28;20052;-65
2022/09/22 00:36:12;;;;;;;10.55;7.93;;;8.20;99.90;;;;;;5077278;28;20052;-65
2022/09/22 00:38:38;;;;;;;10.55;6.45;;;8.40;99.90;;;;;;5077901;28;20141;-65
2022/09/22 00:41:07;;;;;;;13.23;6.90;;;8.30;99.90;;;;;;5060308;28;20129;-65
2022/09/22 00:43:35;;;;;;;10.68;6.93;;;8.10;99.90;;;;;;5062247;28;20067;-64
2022/09/22 00:46:19;;;;;;;10.07;5.93;;;8.40;99.90;;;;;;5060647;28;20371;-64
2022/09/22 00:48:51;;;;;;;12.43;6.90;;;8.30;99.90;;;;;;5060822;28;20460;-64
2022/09/22 00:51:22;;;;;;;9.48;7.05;;;8.50;99.90;;;;;;5061363;28;20056;-64
2022/09/22 00:53:48;;;;;;;11.10;5.88;;;8.40;99.90;;;;;;5058330;28;20456;-65
2022/09/22 00:56:18;;;;;;;12.05;8.10;;;8.10;99.90;;;;;;5043563;28;20052;-64
2022/09/22 00:58:49;;;;;;;10.57;6.78;;;8.30;99.90;;;;;;5059932;28;20405;-64
2022/09/22 01:01:15;;;;;;;8.52;6.80;;;8.00;99.90;;;;;;5058287;28;20050;-64
2022/09/22 01:03:42;;;;;;;12.32;6.88;;;7.90;99.90;;;;;;5059770;28;20058;-64
2022/09/22 01:06:12;;;;;;;11.93;6.90;;;7.90;99.90;;;;;;5059271;28;20048;-65
2022/09/22 01:08:39;;;;;;;10.38;6.57;;;7.90;99.90;;;;;;5059178;28;20073;-64
2022/09/22 01:11:06;;;;;;;13.05;7.05;;;8.20;99.90;;;;;;5058993;28;20332;-64
2022/09/22 01:13:54;;;;;;;13.68;7.03;;;8.00;99.90;;;;;;5063769;28;20567;-64
2022/09/22 01:16:55;;;;;;;12.73;6.50;;;8.00;99.90;;;;;;5041416;28;20048;-65
2022/09/22 01:19:39;;;;;;;11.55;6.00;;;8.10;99.90;;;;;;5079269;28;20036;-64
2022/09/22 01:22:31;;;;;;;14.10;6.38;;;7.90;99.90;;;;;;5057319;28;20262;-64
2022/09/22 01:25:50;;;;;;;13.52;6.50;;;8.00;99.90;;;;;;5042257;28;20047;-64
2022/09/22 01:28:44;;;;;;;9.73;5.25;;;7.70;99.90;;;;;;4979780;28;20712;-64
2022/09/22 01:31:54;;;;;;;10.43;5.65;;;7.70;99.90;;;;;;5060058;28;20814;-64
2022/09/22 01:34:40;;;;;;;7.07;5.10;;;7.70;99.90;;;;;;5019653;28;20057;-64
2022/09/22 01:37:24;;;;;;;10.40;5.13;;;7.90;99.90;;;;;;5041008;28;20148;-64
2022/09/22 01:40:01;;;;;;;9.77;4.53;;;7.80;99.90;;;;;;5067574;28;20390;-64
2022/09/22 01:42:34;;;;;;;8.02;5.40;;;7.90;99.90;;;;;;5059672;28;20039;-64
2022/09/22 01:45:10;;;;;;;10.05;4.65;;;8.00;99.90;;;;;;5058482;28;21053;-64
2022/09/22 01:47:41;;;;;;;13.93;5.88;;;7.90;99.90;;;;;;5060777;28;20573;-64
2022/09/22 01:50:40;;;;;;;15.90;5.90;;;7.70;99.90;;;;;;5061079;28;20040;-64
2022/09/22 01:53:12;;;;;;;12.95;5.53;;;7.90;99.90;;;;;;5039435;28;20075;-64
2022/09/22 01:55:41;;;;;;;11.55;4.65;;;7.80;99.90;;;;;;5059507;28;20052;-64
2022/09/22 01:58:23;;;;;;;8.43;4.78;;;7.80;99.90;;;;;;5041663;28;20356;-64
2022/09/22 02:00:55;;;;;;;11.30;5.28;;;7.70;99.90;;;;;;5044166;28;20047;-64
2022/09/22 02:03:37;;;;;;;8.65;4.90;;;7.90;99.90;;;;;;5057473;28;20340;-64
2022/09/22 02:06:12;;;;;;;7.85;4.68;;;7.60;99.90;;;;;;5061019;28;20348;-64
2022/09/22 02:08:49;;;;;;;9.35;4.80;;;7.60;99.90;;;;;;5058031;28;20047;-64
2022/09/22 02:11:15;;;;;;;11.15;5.18;;;7.70;99.90;;;;;;5058857;28;20059;-65
2022/09/22 02:13:42;;;;;;;9.80;5.15;;;7.80;99.90;;;;;;5057864;28;20082;-65
2022/09/22 02:16:10;;;;;;;9.30;4.75;;;7.70;99.90;;;;;;5060660;28;20044;-64
2022/09/22 02:19:02;;;;;;;13.88;5.13;;;7.70;99.90;;;;;;5045151;28;20142;-63
2022/09/22 02:21:28;;;;;;;8.00;5.05;;;7.60;99.90;;;;;;5054640;28;20091;-63
2022/09/22 02:23:54;;;;;;;10.57;5.40;;;7.70;99.90;;;;;;5060485;28;20046;-63
2022/09/22 02:26:24;;;;;;;14.60;6.20;;;7.60;99.90;;;;;;5059127;28;20096;-63
2022/09/22 02:29:01;;;;;;;12.48;6.20;;;7.60;99.90;;;;;;5058877;28;20039;-63
2022/09/22 02:31:31;;;;;;;11.95;6.50;;;7.50;99.90;;;;;;5058894;28;20209;-63
2022/09/22 02:33:57;;;;;;;9.10;6.03;;;7.50;99.90;;;;;;5058618;28;20206;-64
2022/09/22 02:36:27;;;;;;;15.55;6.53;;;7.50;99.90;;;;;;5063903;28;21185;-64
2022/09/22 02:39:09;;;;;;;11.60;6.57;;;7.40;99.90;;;;;;5058699;28;20501;-64
2022/09/22 02:41:53;;;;;;;13.05;7.05;;;7.30;99.90;;;;;;5060690;28;20040;-64
2022/09/22 02:44:29;;;;;;;9.48;6.05;;;7.20;99.90;;;;;;5057859;28;20438;-64
2022/09/22 02:47:08;;;;;;;10.35;6.32;;;7.40;99.90;;;;;;5081424;28;20040;-64
2022/09/22 02:49:35;;;;;;;11.00;7.28;;;7.50;99.90;;;;;;5060378;28;20049;-64
2022/09/22 02:52:01;;;;;;;13.65;6.85;;;7.10;99.90;;;;;;5043186;28;20303;-64
2022/09/22 02:54:26;;;;;;;12.38;7.55;;;7.20;99.90;;;;;;5057761;28;20040;-64
2022/09/22 02:56:53;;;;;;;14.25;7.53;;;7.20;99.90;;;;;;5040830;28;20253;-64
2022/09/22 02:59:18;;;;;;;16.42;7.10;;;7.10;99.90;;;;;;5060176;28;20073;-63
2022/09/22 03:01:44;;;;;;;13.02;6.93;;;7.40;99.90;;;;;;5041503;28;20049;-65
2022/09/22 03:04:10;;;;;;;13.98;6.75;;;7.40;99.90;;;;;;5059387;28;20067;-64
2022/09/22 03:06:37;;;;;;;12.35;7.03;;;7.30;99.90;;;;;;5057470;28;20099;-65
2022/09/22 03:09:02;;;;;;;17.42;7.10;;;7.40;99.90;;;;;;5041265;28;20669;-65
2022/09/22 03:11:28;;;;;;;8.88;6.43;;;7.10;99.90;;;;;;5055839;28;20662;-63
2022/09/22 03:13:54;;;;;;;13.52;7.40;;;7.50;99.90;;;;;;5061357;28;20728;-63
2022/09/22 03:16:19;;;;;;;12.18;7.15;;;7.40;99.90;;;;;;5041153;28;20310;-63
2022/09/22 03:18:45;;;;;;;15.60;7.72;;;7.20;99.90;;;;;;5061424;28;20039;-65
2022/09/22 03:21:11;;;;;;;12.98;6.68;;;7.40;99.90;;;;;;5041325;28;20046;-65
2022/09/22 03:23:36;;;;;;;10.63;6.45;;;7.20;99.90;;;;;;5058986;28;20032;-63
2022/09/22 03:26:02;;;;;;;12.10;6.88;;;7.10;99.90;;;;;;5062175;28;20049;-65
2022/09/22 03:28:28;;;;;;;13.77;7.72;;;7.30;99.90;;;;;;5045522;28;20462;-63
2022/09/22 03:30:54;;;;;;;15.02;7.43;;;7.20;99.90;;;;;;5059418;28;20044;-63
2022/09/22 03:33:19;;;;;;;13.10;7.03;;;7.10;99.90;;;;;;5062111;28;20050;-64
2022/09/22 03:35:45;;;;;;;14.05;7.20;;;7.30;99.90;;;;;;5061959;28;20063;-63
2022/09/22 03:38:11;;;;;;;10.88;7.00;;;7.20;99.90;;;;;;5063062;28;20074;-63
2022/09/22 03:40:36;;;;;;;14.60;6.63;;;7.10;99.90;;;;;;5076452;28;20449;-64
2022/09/22 03:43:02;;;;;;;13.57;7.82;;;7.10;99.90;;;;;;5045747;28;20434;-64
2022/09/22 03:45:28;;;;;;;15.70;7.07;;;7.00;99.90;;;;;;5045813;28;20318;-63
2022/09/22 03:47:53;;;;;;;17.50;7.97;;;7.10;99.90;;;;;;5046548;28;20027;-64
2022/09/22 03:50:20;;;;;;;11.15;7.35;;;7.00;99.90;;;;;;5042268;28;20203;-63
2022/09/22 03:52:46;;;;;;;12.23;7.03;;;7.40;99.90;;;;;;5044339;28;20040;-63
2022/09/22 03:55:11;;;;;;;16.17;7.38;;;7.10;99.90;;;;;;5060948;28;20119;-63
2022/09/22 03:57:38;;;;;;;13.75;7.10;;;7.20;99.90;;;;;;5059551;28;20046;-63
2022/09/22 04:00:05;;;;;;;12.65;7.05;;;7.30;99.90;;;;;;5060530;28;20381;-63
2022/09/22 04:02:31;;;;;;;16.55;7.40;;;7.30;99.90;;;;;;5059857;28;20333;-64
2022/09/22 04:04:56;;;;;;;14.00;7.10;;;7.30;99.90;;;;;;5062097;28;20035;-63
2022/09/22 04:07:22;;;;;;;14.38;7.35;;;7.40;99.90;;;;;;5060215;28;20191;-63
2022/09/22 04:09:47;;;;;;;13.93;6.32;;;7.30;99.90;;;;;;5060556;28;20113;-63
2022/09/22 04:12:13;;;;;;;16.98;6.70;;;7.30;99.90;;;;;;5044147;28;20040;-63
2022/09/22 04:14:39;;;;;;;11.75;7.03;;;7.40;99.90;;;;;;5046412;28;20548;-63
2022/09/22 04:17:05;;;;;;;11.90;6.72;;;7.40;99.90;;;;;;5010810;28;20038;-63
2022/09/22 04:19:34;;;;;;;9.48;6.63;;;7.10;99.90;;;;;;5042281;28;20117;-63
2022/09/22 04:22:00;;;;;;;15.73;7.13;;;7.10;99.90;;;;;;5045871;28;20092;-63
2022/09/22 04:24:26;;;;;;;17.73;6.47;;;7.10;99.90;;;;;;5080199;28;20071;-63
2022/09/22 04:26:51;;;;;;;13.27;7.07;;;7.30;99.90;;;;;;5044139;28;20248;-63
2022/09/22 04:29:17;;;;;;;13.52;6.50;;;7.40;99.90;;;;;;5060794;28;20462;-63
2022/09/22 04:31:43;;;;;;;16.48;7.10;;;7.30;99.90;;;;;;5045737;28;20612;-63
2022/09/22 04:34:08;;;;;;;13.10;6.60;;;7.20;99.90;;;;;;5042678;28;20497;-64
2022/09/22 04:36:34;;;;;;;13.52;6.57;;;7.40;99.90;;;;;;5042546;28;20497;-63
2022/09/22 04:39:02;;;;;;;13.10;7.50;;;7.40;99.90;;;;;;5059454;28;20093;-63
2022/09/22 04:41:29;;;;;;;13.93;6.50;;;7.50;99.90;;;;;;5043543;28;20113;-63
2022/09/22 04:43:55;;;;;;;13.68;7.00;;;7.60;99.90;;;;;;5058242;28;20044;-64
2022/09/22 04:46:21;;;;;;;16.05;6.90;;;7.50;99.90;;;;;;5047333;28;20039;-63
2022/09/22 04:48:47;;;;;;;11.95;6.38;;;7.30;99.90;;;;;;5061016;28;20031;-64
2022/09/22 04:51:12;;;;;;;12.07;6.38;;;7.60;99.90;;;;;;5060474;28;20044;-63
2022/09/22 04:53:38;;;;;;;11.27;6.93;;;7.50;99.90;;;;;;5038378;28;20032;-63
2022/09/22 04:56:04;;;;;;;13.63;6.30;;;7.30;99.90;;;;;;5062063;28;20573;-63
2022/09/22 04:58:30;;;;;;;12.57;7.28;;;7.30;99.90;;;;;;5060244;28;20468;-63
2022/09/22 05:01:04;;;;;;;14.00;7.05;;;7.40;99.90;;;;;;5062088;28;20054;-63
2022/09/22 05:03:29;;;;;;;13.93;7.10;;;7.30;99.90;;;;;;5060183;28;20044;-64
2022/09/22 05:05:55;;;;;;;11.02;7.18;;;7.40;99.90;;;;;;5060183;28;20050;-63
2022/09/22 05:08:21;;;;;;;13.77;6.93;;;7.20;99.90;;;;;;5063163;28;20050;-63
2022/09/22 05:10:46;;;;;;;11.43;7.35;;;7.20;99.90;;;;;;5060365;28;20035;-63
2022/09/22 05:13:12;;;;;;;12.52;7.60;;;7.30;99.90;;;;;;5059911;28;20044;-63
2022/09/22 05:15:39;;;;;;;14.95;7.53;;;7.00;99.90;;;;;;5045867;28;20067;-64
2022/09/22 05:18:05;;;;;;;13.48;8.07;;;7.30;99.90;;;;;;5061380;28;20063;-63
2022/09/22 05:20:30;;;;;;;14.48;7.45;;;7.20;99.90;;;;;;5058452;28;20147;-63
2022/09/22 05:22:56;;;;;;;10.73;7.32;;;6.90;99.90;;;;;;5061581;28;20040;-64
2022/09/22 05:25:22;;;;;;;15.63;9.40;;;6.90;99.90;;;;;;5044182;28;20483;-63
2022/09/22 05:27:52;;;;;;;11.77;7.90;;;7.20;99.90;;;;;;5037027;28;20047;-63
2022/09/22 05:30:19;;;;;;;19.00;7.82;;;6.90;99.90;;;;;;5059197;28;20555;-64
2022/09/22 05:32:46;;;;;;;13.75;8.00;;;6.90;99.90;;;;;;5057847;28;20078;-64
2022/09/22 05:35:14;;;;;;;14.20;7.43;;;7.00;99.90;;;;;;5043337;28;20052;-65
2022/09/22 05:37:44;;;;;;;15.20;8.52;;;7.20;99.90;;;;;;5058887;28;20120;-64
2022/09/22 05:40:10;;;;;;;16.70;8.30;;;7.20;99.90;;;;;;5058993;28;20593;-64
2022/09/22 05:42:43;;;;;;;12.57;7.70;;;7.30;99.90;;;;;;5060133;28;20617;-64
2022/09/22 05:45:09;;;;;;;14.20;8.00;;;7.10;99.90;;;;;;5058504;28;20097;-64
2022/09/22 05:47:35;;;;;;;9.48;7.05;;;7.30;99.90;;;;;;5057581;28;20142;-64
2022/09/22 05:50:01;;;;;;;11.32;7.80;;;7.10;99.90;;;;;;5077596;28;20167;-66
2022/09/22 05:52:27;;;;;;;14.65;8.50;;;7.30;99.90;;;;;;5056664;28;20680;-64
2022/09/22 05:54:52;;;;;;;15.32;8.65;;;7.20;99.90;;;;;;5077566;28;20463;-64
2022/09/22 05:57:24;;;;;;;15.50;8.98;;;7.60;99.90;;;;;;5060054;28;20092;-63
2022/09/22 05:59:50;;;;;;;10.82;7.65;;;7.70;99.90;;;;;;5064453;28;20042;-63
2022/09/22 06:02:15;;;;;;;10.52;7.75;;;7.70;99.90;;;;;;5059573;28;20322;-63
2022/09/22 06:04:41;;;;;;;13.70;7.65;;;7.80;99.90;;;;;;5019263;28;20114;-63
2022/09/22 06:07:07;;;;;;;12.13;8.15;;;7.80;99.90;;;;;;5043166;28;20036;-63
2022/09/22 06:09:33;;;;;;;12.90;7.45;;;7.90;99.90;;;;;;5075654;28;20035;-62
2022/09/22 06:11:59;;;;;;;11.77;7.38;;;8.10;99.90;;;;;;5060057;28;20411;-63
2022/09/22 06:14:25;;;;;;;10.45;7.30;;;8.20;99.90;;;;;;5058735;28;20086;-63
2022/09/22 06:16:50;;;;;;;12.25;7.80;;;8.10;99.90;;;;;;5049571;28;20358;-63
2022/09/22 06:19:16;;;;;;;12.23;7.95;;;8.20;99.90;;;;;;5057014;28;20035;-63
2022/09/22 06:21:41;;;;;;;12.40;7.22;;;8.10;99.90;;;;;;5039652;28;20321;-63
2022/09/22 06:24:07;;;;;;;13.57;8.25;;;8.50;99.90;;;;;;5059614;28;20070;-64
2022/09/22 06:26:33;;;;;;;11.48;6.80;;;8.70;99.90;;;;;;5057144;28;20204;-63
2022/09/22 06:28:58;;;;;;;10.98;6.85;;;9.00;99.90;;;;;;5057435;28;20662;-64
2022/09/22 06:31:24;;;;;;;8.63;6.70;;;9.20;99.90;;;;;;5054593;28;20518;-64
2022/09/22 06:33:50;;;;;;;10.95;6.90;;;9.50;99.90;;;;;;5062303;28;20229;-64
2022/09/22 06:36:29;;;;;;;8.40;6.70;;;9.60;99.90;;;;;;5039589;28;20094;-64
2022/09/22 06:38:57;;;;;;;10.40;6.82;;;9.70;99.90;;;;;;5057309;28;20585;-63
2022/09/22 06:41:27;;;;;;;12.30;6.75;;;9.90;99.90;;;;;;5039644;28;20044;-64
2022/09/22 06:43:55;;;;;;;12.80;7.07;;;10.40;99.90;;;;;;5058131;28;20581;-64
2022/09/22 06:46:26;;;;;;;10.95;5.82;;;10.70;99.90;;;;;;5040487;28;20143;-64
2022/09/22 06:48:56;;;;;;;8.95;5.30;;;11.40;99.90;;;;;;5051079;28;20047;-64
2022/09/22 06:51:26;;;;;;;11.63;6.15;;;11.70;99.90;;;;;;5052878;28;20056;-64
2022/09/22 06:53:55;;;;;;;9.93;5.53;;;11.90;99.90;;;;;;5055407;28;20230;-64
2022/09/22 06:56:23;;;;;;;10.88;5.80;;;12.20;99.90;;;;;;5039502;28;20123;-64
2022/09/22 06:58:49;;;;;;;10.38;5.35;;;12.50;99.90;;;;;;5056263;28;20420;-64
2022/09/22 07:01:17;;;;;;;8.38;4.90;;;12.90;99.90;;;;;;5041211;28;20421;-64
2022/09/22 07:03:44;;;;;;;9.88;4.63;;;13.20;99.90;;;;;;5058081;28;20059;-64
2022/09/22 07:06:15;;;;;;;11.55;4.45;;;13.30;99.90;;;;;;5054229;28;20152;-64
2022/09/22 07:08:42;;;;;;;9.77;4.15;;;13.40;99.90;;;;;;5059862;28;20239;-64
2022/09/22 07:11:08;;;;;;;11.07;4.38;;;13.50;99.90;;;;;;5043612;28;20409;-65
2022/09/22 07:13:40;;;;;;;7.03;3.50;;;13.50;99.90;;;;;;5041636;28;20215;-65
2022/09/22 07:16:07;;;;;;;5.53;3.65;;;13.50;99.90;;;;;;5053265;28;20055;-64
2022/09/22 07:18:34;;;;;;;8.35;3.45;;;13.50;99.90;;;;;;5055795;28;20146;-64
2022/09/22 07:21:05;;;;;;;8.68;3.80;;;13.80;99.90;;;;;;5057591;28;20037;-64
2022/09/22 07:23:33;;;;;;;11.13;3.88;;;14.00;99.90;;;;;;5055589;28;20044;-65
2022/09/22 07:26:03;;;;;;;9.57;3.60;;;14.40;99.90;;;;;;5058912;28;20261;-64
2022/09/22 07:28:30;;;;;;;9.27;3.60;;;14.70;99.90;;;;;;5037857;28;20036;-64
2022/09/22 07:31:04;;;;;;;9.85;4.10;;;15.10;99.90;;;;;;5058760;28;20522;-64
2022/09/22 07:33:41;;;;;;;6.55;3.88;;;15.40;99.90;;;;;;5035121;28;20051;-64
2022/09/22 07:36:21;;;;;;;7.65;3.63;;;15.40;99.90;;;;;;5074698;28;20113;-64
2022/09/22 07:38:50;;;;;;;7.03;3.67;;;15.60;99.90;;;;;;5058682;28;20071;-64
2022/09/22 07:41:40;;;;;;;6.72;3.40;;;15.70;99.90;;;;;;5056582;28;20644;-64
2022/09/22 07:46:51;;;;;;;9.88;3.92;;;15.50;99.90;;;;;;5061601;28;20575;-65
2022/09/22 07:49:18;;;;;;;7.38;3.80;;;15.70;99.90;;;;;;5040334;28;20039;-64
2022/09/22 07:51:44;;;;;;;7.70;3.88;;;15.80;99.90;;;;;;5038146;28;20039;-65
2022/09/22 07:54:10;;;;;;;7.03;4.45;;;16.00;99.90;;;;;;5063807;28;20642;-64
2022/09/22 07:56:41;;;;;;;6.93;3.40;;;16.10;99.90;;;;;;5057274;28;20044;-64
2022/09/22 07:59:09;;;;;;;7.22;4.03;;;16.20;99.90;;;;;;5051710;28;20453;-64
2022/09/22 08:01:47;;;;;;;5.43;3.10;;;16.50;99.90;;;;;;5060014;28;20067;-64
2022/09/22 08:04:15;;;;;;;10.65;3.60;;;16.70;99.90;;;;;;5056601;28;20554;-64
2022/09/22 08:06:42;;;;;;;6.80;2.63;;;16.90;99.90;;;;;;5053747;28;20047;-64
2022/09/22 08:09:09;;;;;;;8.23;3.30;;;16.90;99.90;;;;;;5056097;28;20048;-63
2022/09/22 08:11:35;;;;;;;7.28;3.33;;;16.70;99.90;;;;;;5074685;28;20040;-64
2022/09/22 08:14:03;;;;;;;8.68;3.72;;;17.00;99.90;;;;;;5044721;28;20070;-65
2022/09/22 08:16:38;;;;;;;6.63;3.90;;;17.30;99.90;;;;;;5065674;28;20062;-65
2022/09/22 08:19:11;;;;;;;6.68;3.33;;;17.50;99.90;;;;;;5063379;28;20047;-64
2022/09/22 08:21:38;;;;;;;6.82;2.67;;;17.70;99.90;;;;;;5059891;28;20411;-65
2022/09/22 08:24:06;;;;;;;5.97;2.30;;;17.80;99.90;;;;;;5059652;28;20047;-65
2022/09/22 08:26:35;;;;;;;5.22;3.22;;;17.40;99.90;;;;;;5060012;28;20165;-64
2022/09/22 08:29:02;;;;;;;6.03;3.15;;;17.60;99.90;;;;;;5045493;28;20258;-64
2022/09/22 08:31:28;;;;;;;4.63;2.60;;;17.60;99.90;;;;;;5056817;28;20040;-63
2022/09/22 08:33:55;;;;;;;4.45;2.33;;;17.90;99.90;;;;;;5057497;28;20397;-64
2022/09/22 08:36:22;;;;;;;5.40;2.42;;;17.80;99.90;;;;;;5057924;28;20373;-66
2022/09/22 08:38:48;;;;;;;7.00;2.70;;;18.00;99.90;;;;;;5061140;28;20198;-65
2022/09/22 08:41:37;;;;;;;6.05;2.95;;;18.20;99.90;;;;;;5043784;28;20052;-65
2022/09/22 08:44:31;;;;;;;6.63;2.97;;;18.40;99.90;;;;;;5056134;28;20497;-65
2022/09/22 08:47:00;;;;;;;7.80;2.72;;;18.70;99.90;;;;;;5061646;28;20046;-64
2022/09/22 08:52:39;;;;;;;3.67;2.00;;;19.00;99.90;;;;;;5054990;28;20134;-65
2022/09/22 08:55:26;;;;;;;7.47;2.72;;;18.90;99.90;;;;;;5055131;28;20438;-65
2022/09/22 08:58:22;;;;;;;7.88;2.22;;;18.60;99.90;;;;;;5062918;28;20083;-65
2022/09/22 09:01:08;;;;;;;6.65;2.00;;;18.80;99.90;;;;;;5056945;28;20064;-66
2022/09/22 09:03:46;;;;;;;4.47;2.15;;;18.80;99.90;;;;;;5055325;28;20127;-64
2022/09/22 09:06:36;;;;;;;6.65;2.22;;;18.90;99.90;;;;;;5070911;28;20097;-65
2022/09/22 09:09:09;;;;;;;5.70;2.47;;;19.00;99.90;;;;;;5055891;28;20063;-64
2022/09/22 09:11:43;;;;;;;7.35;2.25;;;19.10;99.90;;;;;;5054274;28;20043;-65
2022/09/22 09:14:29;;;;;;;7.35;2.30;;;19.30;99.90;;;;;;5065872;28;20525;-65
2022/09/22 09:17:04;;;;;;;6.88;1.98;;;19.40;99.90;;;;;;5055610;28;20049;-65
2022/09/22 09:19:47;;;;;;;5.70;2.03;;;19.60;99.90;;;;;;5078598;28;20405;-65
2022/09/22 09:22:26;;;;;;;4.83;1.57;;;19.60;99.90;;;;;;5054003;28;20104;-64
2022/09/22 09:25:03;;;;;;;3.22;1.45;;;19.50;99.90;;;;;;5062513;28;20410;-64
2022/09/22 09:27:40;;;;;;;5.32;1.50;;;19.40;99.90;;;;;;5067700;28;20039;-64
2022/09/22 09:30:18;;;;;;;7.35;1.50;;;19.50;99.90;;;;;;5047084;28;20326;-64
2022/09/22 09:32:48;;;;;;;4.57;1.50;;;19.60;99.90;;;;;;5070248;28;20044;-64
2022/09/22 09:35:18;;;;;;;3.55;1.30;;;20.00;99.90;;;;;;5052064;28;20211;-63
2022/09/22 09:37:46;;;;;;;7.05;1.50;;;19.90;99.90;;;;;;5038814;28;20559;-63
2022/09/22 09:40:18;;;;;;;3.47;1.50;;;20.00;99.70;;;;;;5054535;28;20507;-64
2022/09/22 09:42:46;;;;;;;5.05;1.40;;;19.90;99.90;;;;;;5039905;28;20044;-65
2022/09/22 09:45:14;;;;;;;6.35;1.48;;;20.10;98.90;;;;;;5038120;28;20111;-65
2022/09/22 09:47:53;;;;;;;7.25;1.70;;;20.40;98.60;;;;;;5054733;28;20044;-65
2022/09/22 09:50:20;;;;;;;5.43;1.55;;;20.70;97.90;;;;;;5054830;28;20390;-65
2022/09/22 09:52:46;;;;;;;3.47;1.35;;;20.90;96.30;;;;;;5065801;28;20136;-65
2022/09/22 09:55:24;;;;;;;4.97;1.25;;;20.70;92.50;;;;;;5060205;28;20053;-65
2022/09/22 09:58:02;;;;;;;5.82;1.40;;;20.60;92.50;;;;;;5052483;28;20430;-65
2022/09/22 10:00:32;;;;;;;3.83;1.23;;;21.00;91.30;;;;;;5052589;28;20455;-64
2022/09/22 10:03:28;;;;;;;4.30;1.45;;;21.10;90.50;;;;;;5050390;28;20493;-65
2022/09/22 10:06:01;;;;;;;5.63;1.80;;;20.90;86.70;;;;;;5041552;28;20310;-65
2022/09/22 10:08:27;;;;;;;;;;;21.30;90.20;;;;;;5048889;28;20039;-65
2022/09/22 10:10:57;;;;;;;4.97;1.00;;;21.50;80.90;;;;;;5051449;28;19999;-64
2022/09/22 10:13:28;;;;;;;6.15;1.65;;;21.60;86.00;;;;;;5050960;28;20036;-65
2022/09/22 10:16:04;;;;;;;4.43;1.10;;;21.30;83.00;;;;;;5059768;28;20549;-64
2022/09/22 10:18:39;;;;;;;3.83;1.17;;;21.40;84.90;;;;;;5048808;28;20355;-64
2022/09/22 10:21:21;;;;;;;6.03;1.40;;;21.30;78.80;;;;;;5050128;28;20530;-64
2022/09/22 10:23:52;;;;;;;4.05;0.93;;;21.70;73.20;;;;;;5066007;28;20036;-64
2022/09/22 10:26:22;;;;;;;4.13;0.90;;;21.50;73.90;;;;;;5041559;28;21220;-64
2022/09/22 10:29:07;;;;;;;2.75;0.60;;;21.30;69.90;;;;;;5047361;28;20124;-65
2022/09/22 10:31:37;;;;;;;4.13;1.10;;;21.50;71.30;;;;;;5060531;28;20564;-64
2022/09/22 10:34:04;;;;;;;4.68;1.10;;;21.90;72.10;;;;;;5064907;28;20091;-64
2022/09/22 10:36:32;;;;;;;4.38;0.93;;;22.00;67.20;;;;;;5081406;28;20050;-64
2022/09/22 10:38:58;;;;;;;3.05;0.68;;;22.00;61.10;;;;;;5070138;28;20061;-64
2022/09/22 10:41:30;;;;;;;3.70;1.00;;;22.10;62.20;;;;;;5064252;28;20114;-64
2022/09/22 10:44:15;;;;;;;4.47;0.60;;;21.80;63.00;;;;;;5046811;28;20744;-64
2022/09/22 10:46:48;;;;;;;4.03;0.68;;;22.20;60.80;;;;;;5055854;28;20048;-64
2022/09/22 10:49:32;;;;;;;3.88;0.88;;;22.20;58.50;;;;;;5065446;28;20054;-64
2022/09/22 10:52:13;;;;;;;4.45;0.68;;;22.40;62.00;;;;;;5065296;28;20093;-64
2022/09/22 10:55:03;;;;;;;4.13;0.50;;;22.80;53.80;;;;;;5052681;28;20421;-63
2022/09/22 10:58:03;;;;;;;3.80;0.85;;;23.00;54.80;;;;;;5056691;28;20040;-64
2022/09/22 11:00:41;;;;;;;5.07;0.57;;;22.70;49.60;;;;;;5053659;28;20402;-63
2022/09/22 11:03:31;;;;;;;4.72;0.60;;;22.70;52.00;;;;;;5060596;28;20251;-64
2022/09/22 11:12:32;;;;;;;5.63;1.17;;;21.90;53.20;;;;;;5052999;28;20075;-66
2022/09/22 11:15:29;;;;;;;5.22;1.02;;;22.30;52.40;;;;;;5037177;28;20047;-65
2022/09/22 11:18:12;;;;;;;4.30;1.23;;;22.90;49.80;;;;;;5056510;28;20612;-64
2022/09/22 11:20:42;;;;;;;;;;;23.50;46.80;;;;;;5059191;28;20039;-64
2022/09/22 11:23:32;;;;;;;5.43;1.30;;;23.30;44.50;;;;;;5082039;28;19919;-64
2022/09/22 11:26:10;;;;;;;3.53;1.20;;;22.80;43.80;;;;;;5049330;28;20480;-65
2022/09/22 11:29:05;;;;;;;3.78;2.15;;;21.90;45.60;;;;;;5082911;28;20053;-64
2022/09/22 11:31:38;;;;;;;3.78;0.80;;;21.90;50.00;;;;;;5053194;28;20041;-65
2022/09/22 11:34:45;;;;;;;2.70;0.70;;;22.30;44.40;;;;;;5047507;28;20057;-65
2022/09/22 11:37:35;;;;;;;3.90;0.70;;;22.00;43.50;;;;;;4950643;28;20139;-64
2022/09/22 11:40:35;;;;;;;4.10;0.90;;;22.20;43.90;;;;;;5072600;28;20518;-64
2022/09/22 11:43:19;;;;;;;3.25;0.70;;;21.80;44.00;;;;;;5055522;28;20532;-66
2022/09/22 11:46:21;;;;;;;4.40;1.10;;;21.40;45.30;;;;;;5077053;28;20185;-64
2022/09/22 11:49:07;;;;;;;5.07;0.88;;;22.20;47.40;;;;;;5057123;28;20285;-64
2022/09/22 11:51:48;;;;;;;4.80;0.68;;;22.40;43.40;;;;;;5057416;28;20139;-64
2022/09/22 11:54:29;;;;;;;4.53;0.75;;;21.90;41.30;;;;;;5056476;28;20051;-64
2022/09/22 11:57:11;;;;;;;4.28;0.80;;;21.80;43.60;;;;;;5062052;28;20040;-64
2022/09/22 11:59:55;;;;;;;2.63;0.73;;;21.60;42.20;;;;;;5064109;28;20050;-64
2022/09/22 12:02:45;;;;;;;3.55;0.60;;;22.00;43.70;;;;;;5060225;28;20036;-64
2022/09/22 12:05:25;;;;;;;4.65;0.88;;;22.90;40.20;;;;;;5058039;28;20344;-65
2022/09/22 12:08:10;;;;;;;3.72;0.50;;;23.70;43.40;;;;;;5060864;28;20044;-63
2022/09/22 12:10:39;;;;;;;4.53;0.60;;;22.80;36.20;;;;;;5064379;28;20360;-65
2022/09/22 12:13:26;;;;;;;2.72;0.50;;;21.60;39.10;;;;;;5062732;28;20048;-64
2022/09/22 12:16:32;;;;;;;3.65;1.10;;;20.80;42.30;;;;;;5059409;28;20044;-64
2022/09/22 12:19:02;;;;;;;6.55;1.40;;;20.30;43.80;;;;;;5059484;28;20474;-64
2022/09/22 12:21:45;;;;;;;5.32;1.15;;;20.00;48.60;;;;;;5062220;28;20044;-64
2022/09/22 12:24:11;;;;;;;4.32;0.80;;;19.90;50.20;;;;;;5042297;28;20040;-63
2022/09/22 12:26:45;;;;;;;4.13;0.80;;;20.10;51.00;;;;;;5064752;28;20055;-65
2022/09/22 12:29:13;;;;;;;6.47;1.10;;;20.00;51.10;;;;;;5045741;28;20040;-65
2022/09/22 12:31:46;;;;;;;4.38;0.95;;;19.90;50.70;;;;;;5060714;28;20131;-64
2022/09/22 12:34:19;;;;;;;4.57;1.10;;;19.60;53.00;;;;;;5060741;28;20051;-64
2022/09/22 12:36:47;;;;;;;3.35;0.80;;;19.40;54.80;;;;;;5072767;28;20052;-64
2022/09/22 12:39:28;;;;;;;3.38;1.10;;;19.20;56.30;;;;;;5040275;28;20038;-64
2022/09/22 12:42:02;;;;;;;3.30;1.00;;;19.10;60.20;;;;;;5058717;28;20039;-64
2022/09/22 12:44:50;;;;;;;2.75;0.95;;;19.00;61.50;;;;;;5024105;28;20854;-64
2022/09/22 12:47:32;;;;;;;4.10;0.75;;;20.00;59.30;;;;;;5064528;28;20039;-65
2022/09/22 12:50:03;;;;;;;3.33;1.02;;;21.00;54.90;;;;;;5060349;28;20036;-64
2022/09/22 12:52:41;;;;;;;5.38;0.90;;;21.50;49.90;;;;;;5060570;28;20561;-63
2022/09/22 12:55:20;;;;;;;4.03;0.82;;;20.90;48.30;;;;;;5056983;28;20348;-63
2022/09/22 12:57:50;;;;;;;4.40;1.00;;;20.10;50.20;;;;;;5057383;28;20050;-65
2022/09/22 13:00:35;;;;;;;3.20;0.80;;;20.30;55.30;;;;;;5061931;28;20039;-64
2022/09/22 13:03:24;;;;;;;4.15;1.20;;;21.30;56.10;;;;;;5040812;28;20036;-64
2022/09/22 13:05:56;;;;;;;5.85;0.75;;;21.70;45.70;;;;;;5058124;28;20104;-67
2022/09/22 13:08:42;;;;;;;3.17;0.80;;;21.20;44.90;;;;;;5083519;28;20112;-69
2022/09/22 13:11:08;;;;;;;5.60;1.30;;;21.30;47.40;;;;;;5023534;28;20037;-65
2022/09/22 13:13:40;;;;;;;2.75;0.90;;;22.00;46.10;;;;;;5042933;28;20039;-64
2022/09/22 13:16:14;;;;;;;3.92;0.85;;;22.50;43.70;;;;;;5072532;28;20036;-64
2022/09/22 13:18:50;;;;;;;5.25;1.50;;;22.30;42.20;;;;;;5060580;28;20357;-64
2022/09/22 13:21:17;;;;;;;3.67;1.10;;;21.60;42.10;;;;;;5057393;28;21398;-64
2022/09/22 13:23:52;;;;;;;5.00;1.10;;;20.90;44.50;;;;;;5054306;28;20210;-64
2022/09/22 13:26:22;;;;;;;4.50;1.30;;;20.40;46.30;;;;;;5052975;28;20130;-64
2022/09/22 13:29:16;;;;;;;5.55;1.02;;;20.00;46.60;;;;;;5056270;28;20127;-64